Serenade Of The Seas — C6FV8 — position and weather

sailwx.info

Track history (hours):
 
Tides and Currents Weather Stations Pressure Air Temp Water Temp Dewpoint Dewpoint Depression Visibility Wind Speed Wind Dir Waves Ship Positions

Serenade Of The Seas

Operator: Royal Caribbean Cruises Ltd

Last reported at 2017-Aug-20 07:09 UTC. Time now 2017-Aug-20 13:39 UTC.
Position N 57°52' E 010°28'.

Length 294 m; draft 8.6 m.

Type: Ship. MMSI: 311492000.

Date/timePositionNaut miles runAvg speedWind from/ knotsBaromVisibWave heightAir tempDewpointWater temp
2017-Aug-20 07:09N 57°52' E 010°28'210.1
2017-Aug-20 06:58N 57°52' E 010°31'510.1
2017-Aug-20 06:31N 57°52' E 010°40'5 9.9
2017-Aug-20 05:57N 57°49' E 010°48'511.0
2017-Aug-20 05:28N 57°45' E 010°54'511.7
2017-Aug-20 05:00N 57°41' E 011°02'511.1
2017-Aug-20 04:31N 57°37' E 011°09'611.3
2017-Aug-20 04:01N 57°33' E 011°17'611.7
2017-Aug-20 03:31N 57°29' E 011°25'611.3
2017-Aug-20 03:01N 57°24' E 011°28'611.4
2017-Aug-20 02:30N 57°19' E 011°31'611.6
2017-Aug-20 02:01N 57°13' E 011°35'711.5
2017-Aug-20 01:25N 57°07' E 011°39'711.1
2017-Aug-20 00:48N 57°01' E 011°43'5410.8
2017-Aug-19 19:45N 56°11' E 012°23'310.3
2017-Aug-19 19:31N 56°09' E 012°27'510.5
2017-Aug-19 19:01N 56°06' E 012°34'510.4
2017-Aug-19 18:31N 56°02' E 012°40'510.7
2017-Aug-19 18:00N 55°57' E 012°44'510.4
2017-Aug-19 17:31N 55°52' E 012°45'510.1
2017-Aug-19 17:01N 55°47' E 012°43'510.0
2017-Aug-19 16:31N 55°43' E 012°38'0 0.6
2017-Aug-19 15:58N 55°43' E 012°37'0 0.0
2017-Aug-19 15:28N 55°43' E 012°37'0 0.0
2017-Aug-19 14:58N 55°43' E 012°37'0 0.0
2017-Aug-19 13:58N 55°43' E 012°37'0 0.0
2017-Aug-19 13:28N 55°43' E 012°37'0 0.0
2017-Aug-19 12:58N 55°43' E 012°37'0 0.0
2017-Aug-19 12:28N 55°43' E 012°37'0 0.0
2017-Aug-19 11:58N 55°43' E 012°37'0 0.0
2017-Aug-19 11:28N 55°43' E 012°37'0 0.0
2017-Aug-19 10:58N 55°43' E 012°37'0 0.0
2017-Aug-19 10:28N 55°43' E 012°37'0 0.0
2017-Aug-19 09:58N 55°43' E 012°37'0 0.0
2017-Aug-19 09:28N 55°43' E 012°37'0 0.0
2017-Aug-19 08:58N 55°43' E 012°37'0 0.0
2017-Aug-19 08:28N 55°43' E 012°37'0 0.0
2017-Aug-19 07:58N 55°43' E 012°37'0 0.0
2017-Aug-19 07:28N 55°43' E 012°37'0 0.0
2017-Aug-19 06:58N 55°43' E 012°37'0 0.0
2017-Aug-19 06:28N 55°43' E 012°37'0 0.0
2017-Aug-19 05:58N 55°43' E 012°37'0 0.0
2017-Aug-19 05:28N 55°43' E 012°37'0 0.0
2017-Aug-19 04:58N 55°43' E 012°37'0 0.3
2017-Aug-19 04:31N 55°43' E 012°37'4 8.6
2017-Aug-19 04:00N 55°46' E 012°42'713.9
2017-Aug-19 03:31N 55°53' E 012°39'714.3
2017-Aug-19 03:00N 56°00' E 012°40'815.4
2017-Aug-19 02:30N 56°07' E 012°32'917.2
2017-Aug-19 02:00N 56°12' E 012°19'917.5
2017-Aug-19 01:30N 56°12' E 012°04'1717.2
2017-Aug-19 00:29N 56°09' E 011°33'917.7
2017-Aug-18 23:58N 56°10' E 011°16'1018.6
2017-Aug-18 23:24N 56°01' E 011°05'819.3
2017-Aug-18 23:00N 55°55' E 010°57'918.4
2017-Aug-18 22:30N 55°47' E 010°49'918.7
2017-Aug-18 21:59N 55°37' E 010°48'1019.0
2017-Aug-18 21:29N 55°29' E 010°56'1018.6
2017-Aug-18 20:58N 55°20' E 011°02'818.4
2017-Aug-18 20:30N 55°12' E 011°06'1019.4
2017-Aug-18 20:00N 55°02' E 011°02'1019.2
2017-Aug-18 19:30N 54°54' E 010°54'1019.8
2017-Aug-18 19:00N 54°44' E 010°53'918.6
2017-Aug-18 18:30N 54°38' E 011°05'1020.0
2017-Aug-18 18:01N 54°33' E 011°20'1019.9
2017-Aug-18 17:30N 54°29' E 011°35'1019.2
2017-Aug-18 17:00N 54°26' E 011°51'1019.3
2017-Aug-18 16:30N 54°26' E 012°08'1118.2
2017-Aug-18 15:53N 54°36' E 012°16'3219.1
2017-Aug-18 14:11N 54°53' E 013°05'2719.7
2017-Aug-18 12:49N 55°02' E 013°49'619.7
2017-Aug-18 12:30N 55°03' E 013°59'918.9
2017-Aug-18 12:00N 55°09' E 014°12'1019.4
2017-Aug-18 11:31N 55°17' E 014°23'1019.5
2017-Aug-18 11:00N 55°24' E 014°33'1019.3
2017-Aug-18 10:30N 55°30' E 014°46'1019.6
2017-Aug-18 10:00N 55°35' E 015°02'1019.6
2017-Aug-18 09:30N 55°39' E 015°17'1019.6
2017-Aug-18 09:00N 55°44' E 015°32'1019.6
2017-Aug-18 08:30N 55°49' E 015°47'1019.5
2017-Aug-18 08:01N 55°54' E 016°02'1019.9
2017-Aug-18 07:30N 55°59' E 016°17'1019.8
2017-Aug-18 07:00N 56°04' E 016°33'1019.5
2017-Aug-18 06:30N 56°09' E 016°48'1019.4
2017-Aug-18 06:00N 56°16' E 017°01'9819.4
2017-Aug-18 00:59N 57°17' E 019°19'919.7
2017-Aug-18 00:30N 57°25' E 019°28'4019.6
2017-Aug-17 22:29N 57°58' E 020°09'919.7
2017-Aug-17 22:00N 58°06' E 020°18'1019.5
2017-Aug-17 21:30N 58°15' E 020°28'1121.7
2017-Aug-17 21:01N 58°24' E 020°39'1120.5
2017-Aug-17 20:29N 58°32' E 020°51'817.2
2017-Aug-17 20:00N 58°39' E 021°00'1019.1
2017-Aug-17 19:30N 58°47' E 021°10'1020.2
2017-Aug-17 19:00N 58°56' E 021°20'1021.1
2017-Aug-17 18:30N 59°04' E 021°32'918.6
2017-Aug-17 18:00N 59°11' E 021°44'1019.2
2017-Aug-17 17:30N 59°17' E 021°59'1020.7
2017-Aug-17 17:00N 59°23' E 022°15'917.9
2017-Aug-17 16:31N 59°28' E 022°30'1019.9
2017-Aug-17 16:00N 59°32' E 022°48'918.7
2017-Aug-17 15:30N 59°35' E 023°05'1019.7
2017-Aug-17 15:01N 59°38' E 023°24'1020.5
2017-Aug-17 14:30N 59°40' E 023°44'1121.7
2017-Aug-17 14:00N 59°43' E 024°04'1019.5
2017-Aug-17 13:31N 59°46' E 024°23'918.4
2017-Aug-17 13:01N 59°50' E 024°39'917.8
2017-Aug-17 12:31N 59°55' E 024°54'713.4
2017-Aug-17 12:00N 60°02' E 024°54'613.0
2017-Aug-17 11:31N 60°08' E 024°54'1 1.4
2017-Aug-17 11:00N 60°09' E 024°55'0 0.0
2017-Aug-17 10:29N 60°09' E 024°55'0 0.0
2017-Aug-17 09:58N 60°09' E 024°55'0 0.0
2017-Aug-17 09:28N 60°09' E 024°55'0 0.0
2017-Aug-17 09:00N 60°09' E 024°55'0 0.0
2017-Aug-17 08:30N 60°09' E 024°55'0 0.0
2017-Aug-17 08:00N 60°09' E 024°55'0 0.0
2017-Aug-17 07:31N 60°09' E 024°55'0 0.0
2017-Aug-17 07:00N 60°09' E 024°55'0 0.0
2017-Aug-17 06:30N 60°09' E 024°55'0 0.0
2017-Aug-17 06:00N 60°09' E 024°55'0 0.0
2017-Aug-17 05:30N 60°09' E 024°55'0 0.0
2017-Aug-17 05:00N 60°09' E 024°55'0 0.0
2017-Aug-17 04:30N 60°09' E 024°55'0 0.0
2017-Aug-17 04:00N 60°09' E 024°55'0 0.5
2017-Aug-17 03:31N 60°09' E 024°55'3 5.1
2017-Aug-17 03:00N 60°06' E 024°54'612.6
2017-Aug-17 02:30N 60°00' E 024°58'917.1
2017-Aug-17 02:01N 59°56' E 025°13'918.7
2017-Aug-17 01:30N 59°53' E 025°31'918.6
2017-Aug-17 01:00N 59°55' E 025°49'1019.1
2017-Aug-17 00:31N 59°58' E 026°07'1019.8
2017-Aug-17 00:00N 60°01' E 026°26'1019.5
2017-Aug-16 23:31N 60°01' E 026°46'1019.5
2017-Aug-16 23:00N 59°60' E 027°05'1019.8
2017-Aug-16 22:30N 60°05' E 027°22'1019.8
2017-Aug-16 22:00N 60°10' E 027°38'918.9
2017-Aug-16 21:30N 60°11' E 027°57'1020.6
2017-Aug-16 21:00N 60°08' E 028°17'1121.3
2017-Aug-16 20:30N 60°03' E 028°36'1020.0
2017-Aug-16 20:01N 60°02' E 028°56'1019.1
2017-Aug-16 19:30N 60°02' E 029°15'611.6
2017-Aug-16 19:00N 60°02' E 029°27'510.9
2017-Aug-16 18:30N 60°00' E 029°38'510.7
2017-Aug-16 18:00N 59°58' E 029°47'510.7
2017-Aug-16 17:30N 59°56' E 029°57'5 9.5
2017-Aug-16 17:00N 59°57' E 030°06'2 4.1
2017-Aug-16 16:25N 59°57' E 030°11'0 0.0
2017-Aug-16 15:58N 59°57' E 030°11'0 0.0
2017-Aug-16 15:28N 59°57' E 030°11'0 0.0
2017-Aug-16 14:58N 59°57' E 030°11'0 0.0
2017-Aug-16 14:28N 59°57' E 030°11'0 0.0
2017-Aug-16 13:58N 59°57' E 030°11'0 0.0
2017-Aug-16 13:28N 59°57' E 030°11'0 0.0
2017-Aug-16 12:58N 59°57' E 030°11'0 0.0
2017-Aug-16 12:28N 59°57' E 030°11'0 0.0
2017-Aug-16 11:58N 59°57' E 030°11'0 0.0
2017-Aug-16 11:28N 59°57' E 030°11'0 0.0
2017-Aug-16 10:58N 59°57' E 030°11'0 0.0
2017-Aug-16 10:28N 59°57' E 030°11'0 0.0
2017-Aug-16 09:58N 59°57' E 030°11'0 0.0
2017-Aug-16 09:28N 59°57' E 030°11'0 0.0
2017-Aug-16 08:58N 59°57' E 030°11'0 0.0
2017-Aug-16 08:31N 59°57' E 030°11'0 0.0
2017-Aug-16 08:01N 59°57' E 030°11'0 0.0
2017-Aug-16 07:28N 59°57' E 030°11'0 0.0
2017-Aug-16 06:58N 59°57' E 030°11'0 0.0
2017-Aug-16 06:31N 59°57' E 030°11'0 0.0
2017-Aug-16 05:58N 59°57' E 030°11'0 0.0
2017-Aug-16 05:28N 59°57' E 030°11'0 0.0
2017-Aug-16 04:58N 59°57' E 030°11'0 0.0
2017-Aug-16 04:28N 59°57' E 030°11'0 0.0
2017-Aug-16 04:01N 59°57' E 030°11'0 0.0
2017-Aug-16 03:31N 59°57' E 030°11'2 4.2
2017-Aug-16 03:00N 59°57' E 030°07'5 9.5
2017-Aug-16 02:30N 59°56' E 029°58'612.0
2017-Aug-16 02:00N 59°58' E 029°47'510.1
2017-Aug-16 01:31N 60°00' E 029°37'510.7
2017-Aug-16 01:00N 60°01' E 029°27'713.1
2017-Aug-16 00:30N 60°01' E 029°14'714.0
2017-Aug-16 00:00N 60°02' E 028°60'815.7
2017-Aug-15 23:31N 60°02' E 028°44'816.2
2017-Aug-15 23:00N 60°03' E 028°28'917.0
2017-Aug-15 22:31N 60°07' E 028°14'714.7
2017-Aug-15 22:00N 60°09' E 027°59'918.6
2017-Aug-15 21:31N 60°09' E 027°41'713.3
2017-Aug-15 21:00N 60°06' E 027°29'816.5
2017-Aug-15 20:30N 60°01' E 027°15'816.5
2017-Aug-15 20:00N 59°58' E 027°00'816.1
2017-Aug-15 19:31N 59°60' E 026°44'815.4
2017-Aug-15 19:00N 59°59' E 026°29'816.3
2017-Aug-15 18:31N 59°56' E 026°13'815.9
2017-Aug-15 18:00N 59°54' E 025°58'816.0
2017-Aug-15 17:31N 59°52' E 025°43'815.9
2017-Aug-15 17:01N 59°50' E 025°27'815.9
2017-Aug-15 16:30N 59°49' E 025°12'816.2
2017-Aug-15 16:01N 59°47' E 024°56'815.8
2017-Aug-15 15:31N 59°41' E 024°46'714.4
2017-Aug-15 15:01N 59°34' E 024°43'713.3
2017-Aug-15 14:31N 59°27' E 024°46'0 0.9
2017-Aug-15 13:58N 59°27' E 024°46'0 0.0
2017-Aug-15 13:28N 59°27' E 024°46'0 0.0
2017-Aug-15 12:58N 59°27' E 024°46'0 0.0
2017-Aug-15 12:28N 59°27' E 024°46'0 0.0
2017-Aug-15 11:58N 59°27' E 024°46'0 0.0
2017-Aug-15 11:28N 59°27' E 024°46'0 0.0
2017-Aug-15 10:58N 59°27' E 024°46'0 0.0
2017-Aug-15 10:28N 59°27' E 024°46'0 0.0
2017-Aug-15 09:58N 59°27' E 024°46'0 0.0
2017-Aug-15 09:28N 59°27' E 024°46'0 0.0
2017-Aug-15 08:55N 59°27' E 024°46'0 0.0
2017-Aug-15 08:28N 59°27' E 024°46'0 0.0
2017-Aug-15 07:58N 59°27' E 024°46'0 0.0
2017-Aug-15 07:22N 59°27' E 024°46'0 0.0
2017-Aug-15 06:58N 59°27' E 024°46'0 0.0
2017-Aug-15 06:28N 59°27' E 024°46'1 2.0
2017-Aug-15 06:00N 59°28' E 024°46'714.1
2017-Aug-15 05:30N 59°35' E 024°41'714.3
2017-Aug-15 05:01N 59°38' E 024°29'918.0
2017-Aug-15 04:31N 59°39' E 024°11'918.6
2017-Aug-15 04:00N 59°36' E 023°54'918.6
2017-Aug-15 03:30N 59°34' E 023°36'918.4
2017-Aug-15 03:00N 59°31' E 023°18'918.6
2017-Aug-15 02:30N 59°29' E 023°01'918.9
2017-Aug-15 02:00N 59°26' E 022°43'1020.5
2017-Aug-15 01:30N 59°23' E 022°24'918.1
2017-Aug-15 01:00N 59°24' E 022°06'918.5
2017-Aug-15 00:31N 59°24' E 021°48'1019.1
2017-Aug-15 00:01N 59°24' E 021°29'918.7
2017-Aug-14 23:31N 59°25' E 021°11'918.9
2017-Aug-14 23:01N 59°25' E 020°52'1019.1
2017-Aug-14 22:30N 59°26' E 020°34'1019.0
2017-Aug-14 22:00N 59°27' E 020°15'1019.9
2017-Aug-14 21:31N 59°34' E 020°02'918.6
2017-Aug-14 21:00N 59°41' E 019°50'917.6
2017-Aug-14 20:30N 59°47' E 019°37'917.9
2017-Aug-14 20:00N 59°45' E 019°19'816.0
2017-Aug-14 19:31N 59°43' E 019°05'612.0
2017-Aug-14 19:00N 59°39' E 018°55'611.5
2017-Aug-14 18:30N 59°36' E 018°46'611.3
2017-Aug-14 18:00N 59°33' E 018°36'5 9.9
2017-Aug-14 17:31N 59°30' E 018°28'510.4
2017-Aug-14 17:00N 59°25' E 018°24'4 7.5
2017-Aug-14 16:30N 59°22' E 018°25'5 9.4
2017-Aug-14 16:01N 59°22' E 018°16'510.0
2017-Aug-14 15:31N 59°19' E 018°07'1 1.3
2017-Aug-14 15:00N 59°19' E 018°06'0 0.0
2017-Aug-14 14:30N 59°19' E 018°06'0 0.0
2017-Aug-14 14:00N 59°19' E 018°06'0 0.0
2017-Aug-14 13:30N 59°19' E 018°06'0 0.0
2017-Aug-14 13:00N 59°19' E 018°06'0 0.0
2017-Aug-14 12:30N 59°19' E 018°06'0 0.0
2017-Aug-14 12:00N 59°19' E 018°06'0 0.0
2017-Aug-14 11:30N 59°19' E 018°06'0 0.0
2017-Aug-14 11:00N 59°19' E 018°06'0 0.0
2017-Aug-14 10:24N 59°19' E 018°06'0 0.0
2017-Aug-14 10:00N 59°19' E 018°06'0 0.0
2017-Aug-14 09:30N 59°19' E 018°06'0 0.0
2017-Aug-14 09:00N 59°19' E 018°06'0 0.0
2017-Aug-14 08:24N 59°19' E 018°06'0 0.0
2017-Aug-14 08:00N 59°19' E 018°06'0 0.0
2017-Aug-14 07:30N 59°19' E 018°06'0 0.0
2017-Aug-14 07:00N 59°19' E 018°06'1 1.6
2017-Aug-14 06:30N 59°19' E 018°08'5 9.7
2017-Aug-14 06:00N 59°22' E 018°16'5 9.5
2017-Aug-14 05:30N 59°22' E 018°25'3 6.7
2017-Aug-14 05:01N 59°25' E 018°24'510.3
2017-Aug-14 04:31N 59°30' E 018°28'5 9.8
2017-Aug-14 04:00N 59°33' E 018°36'510.6
2017-Aug-14 03:31N 59°35' E 018°45'611.7
2017-Aug-14 03:01N 59°39' E 018°54'611.9
2017-Aug-14 02:31N 59°42' E 019°04'816.9
2017-Aug-14 02:01N 59°45' E 019°19'714.3
2017-Aug-14 01:31N 59°48' E 019°33'917.3
2017-Aug-14 01:00N 59°45' E 019°49'1019.6
2017-Aug-14 00:30N 59°38' E 020°03'1019.1
2017-Aug-14 00:00N 59°30' E 020°12'1019.0
2017-Aug-13 23:30N 59°21' E 020°03'1019.9
2017-Aug-13 23:00N 59°14' E 019°51'1020.3
2017-Aug-13 22:30N 59°06' E 019°38'1220.7
2017-Aug-13 21:55N 58°56' E 019°24'23119.8
2017-Aug-13 10:14N 55°39' E 015°40'621.0
2017-Aug-13 09:58N 55°37' E 015°30'1020.9
2017-Aug-13 09:30N 55°33' E 015°14'1020.8
2017-Aug-13 09:00N 55°29' E 014°58'1020.8
2017-Aug-13 08:30N 55°24' E 014°42'1020.7
2017-Aug-13 08:00N 55°16' E 014°30'1020.6
2017-Aug-13 07:31N 55°08' E 014°18'1120.7
2017-Aug-13 07:00N 55°01' E 014°06'1020.6
2017-Aug-13 06:30N 54°57' E 013°49'2120.7
2017-Aug-13 05:30N 54°51' E 013°14'1020.8
2017-Aug-13 05:01N 54°48' E 012°57'2319.4
2017-Aug-13 03:49N 54°38' E 012°21'1917.1
2017-Aug-13 02:41N 54°25' E 011°56'320.1
2017-Aug-13 02:30N 54°25' E 011°50'1020.4
2017-Aug-13 02:01N 54°29' E 011°34'1020.9
2017-Aug-13 01:31N 54°33' E 011°17'1020.7
2017-Aug-13 01:00N 54°38' E 011°01'918.3
2017-Aug-13 00:31N 54°45' E 010°51'1019.0
2017-Aug-13 00:01N 54°54' E 010°53'918.8
2017-Aug-12 23:31N 55°02' E 011°02'1019.3
2017-Aug-12 23:00N 55°12' E 011°05'1119.9
2017-Aug-12 22:28N 55°22' E 011°01'1020.5
2017-Aug-12 22:00N 55°30' E 010°52'1019.9
2017-Aug-12 21:30N 55°40' E 010°46'1019.9
2017-Aug-12 21:00N 55°50' E 010°49'1019.2
2017-Aug-12 20:29N 55°57' E 010°60'1019.6
2017-Aug-12 20:00N 56°06' E 011°08'4316.7
2017-Aug-12 17:25N 56°10' E 012°25'819.3
2017-Aug-12 17:00N 56°05' E 012°36'815.2
2017-Aug-12 16:30N 55°58' E 012°42'714.5
2017-Aug-12 16:01N 55°51' E 012°45'714.2
2017-Aug-12 15:30N 55°45' E 012°41'3 4.8
2017-Aug-12 14:58N 55°43' E 012°37'0 0.0
2017-Aug-12 14:28N 55°43' E 012°37'0 0.0
2017-Aug-12 13:58N 55°43' E 012°37'0 0.0
2017-Aug-12 13:30N 55°43' E 012°37'0 0.0
2017-Aug-12 13:01N 55°43' E 012°37'0 0.0
2017-Aug-12 12:31N 55°43' E 012°37'0 0.0
2017-Aug-12 12:01N 55°43' E 012°37'0 0.0
2017-Aug-12 11:31N 55°43' E 012°37'0 0.0
2017-Aug-12 11:01N 55°43' E 012°37'0 0.0
2017-Aug-12 10:31N 55°43' E 012°37'0 0.0
2017-Aug-12 10:01N 55°43' E 012°37'0 0.0
2017-Aug-12 09:31N 55°43' E 012°37'0 0.0
2017-Aug-12 09:01N 55°43' E 012°37'0 0.0
2017-Aug-12 08:28N 55°43' E 012°37'0 0.0
2017-Aug-12 07:58N 55°43' E 012°37'0 0.0
2017-Aug-12 07:28N 55°43' E 012°37'0 0.0
2017-Aug-12 06:58N 55°43' E 012°37'0 0.0
2017-Aug-12 06:28N 55°43' E 012°37'0 0.0
2017-Aug-12 05:58N 55°43' E 012°37'0 0.0
2017-Aug-12 05:28N 55°43' E 012°37'0 0.0
2017-Aug-12 04:58N 55°43' E 012°37'0 0.0
2017-Aug-12 04:28N 55°43' E 012°37'0 0.0
2017-Aug-12 03:58N 55°43' E 012°37'0 0.0
2017-Aug-12 03:28N 55°43' E 012°37'0 0.0
2017-Aug-12 02:58N 55°43' E 012°37'0 0.0
2017-Aug-12 02:28N 55°43' E 012°37'0 0.0
2017-Aug-12 01:58N 55°43' E 012°37'0 0.0
2017-Aug-12 01:28N 55°43' E 012°37'0 0.0
2017-Aug-12 00:58N 55°43' E 012°37'0 0.0
2017-Aug-12 00:28N 55°43' E 012°37'0 0.0
2017-Aug-11 23:58N 55°43' E 012°37'0 0.0
2017-Aug-11 23:28N 55°43' E 012°37'0 0.0
2017-Aug-11 22:58N 55°43' E 012°37'0 0.0
2017-Aug-11 22:28N 55°43' E 012°37'0 0.0
2017-Aug-11 21:58N 55°43' E 012°37'0 0.0
2017-Aug-11 21:28N 55°43' E 012°37'0 0.0
2017-Aug-11 20:58N 55°43' E 012°37'0 0.0
2017-Aug-11 20:28N 55°43' E 012°37'0 0.0
2017-Aug-11 19:58N 55°43' E 012°37'0 0.0
2017-Aug-11 19:28N 55°43' E 012°37'0 0.0
2017-Aug-11 18:55N 55°43' E 012°37'0 0.0
2017-Aug-11 18:28N 55°43' E 012°37'0 0.0
2017-Aug-11 17:58N 55°43' E 012°37'0 0.0
2017-Aug-11 17:28N 55°43' E 012°37'0 0.0
2017-Aug-11 16:58N 55°43' E 012°37'0 0.0
2017-Aug-11 16:28N 55°43' E 012°37'0 0.0
2017-Aug-11 15:58N 55°43' E 012°37'0 0.0
2017-Aug-11 15:28N 55°43' E 012°37'0 0.0
2017-Aug-11 14:58N 55°43' E 012°37'0 0.0
2017-Aug-11 13:58N 55°43' E 012°37'0 0.0
2017-Aug-11 13:28N 55°43' E 012°37'0 0.0
2017-Aug-11 12:58N 55°43' E 012°37'0 0.0
2017-Aug-11 12:28N 55°43' E 012°37'0 0.0
2017-Aug-11 11:58N 55°43' E 012°37'0 0.0
2017-Aug-11 11:28N 55°43' E 012°37'0 0.0
2017-Aug-11 10:58N 55°43' E 012°37'0 0.0
2017-Aug-11 10:28N 55°43' E 012°37'0 0.0
2017-Aug-11 09:58N 55°43' E 012°37'0 0.0
2017-Aug-11 09:28N 55°43' E 012°37'0 0.0
2017-Aug-11 08:58N 55°43' E 012°37'0 0.0
2017-Aug-11 08:28N 55°43' E 012°37'0 0.0
2017-Aug-11 07:58N 55°43' E 012°37'0 0.0
2017-Aug-11 07:28N 55°43' E 012°37'0 0.0
2017-Aug-11 06:58N 55°43' E 012°37'0 0.6
2017-Aug-11 06:30N 55°43' E 012°38'4 8.9
2017-Aug-11 06:00N 55°47' E 012°42'510.4
2017-Aug-11 05:30N 55°52' E 012°41'510.9
2017-Aug-11 05:00N 55°57' E 012°40'611.4
2017-Aug-11 04:30N 56°03' E 012°39'511.0
2017-Aug-11 04:00N 56°07' E 012°32'611.9
2017-Aug-11 03:30N 56°10' E 012°23'4410.2
2017-Aug-10 23:07N 56°01' E 011°05'212.0
2017-Aug-10 22:59N 55°59' E 011°03'612.5
2017-Aug-10 22:30N 55°55' E 010°57'612.8
2017-Aug-10 22:00N 55°49' E 010°50'612.0
2017-Aug-10 21:29N 55°43' E 010°48'510.7
2017-Aug-10 21:00N 55°41' E 010°40'611.4
2017-Aug-10 20:30N 55°39' E 010°31'611.9
2017-Aug-10 20:00N 55°40' E 010°20'711.8
2017-Aug-10 19:26N 55°41' E 010°08'  
Track history (hours):
 
Tides and Currents Weather Stations Pressure Air Temp Water Temp Dewpoint Dewpoint Depression Visibility Wind Speed Wind Dir Waves Ship Positions

Serenade Of The Seas

Operator: Royal Caribbean Cruises Ltd

Last reported at 2017-Aug-20 07:09 UTC. Time now 2017-Aug-20 13:39 UTC.
Position N 57°52' E 010°28'.

Length 294 m; draft 8.6 m.

Type: Ship. MMSI: 311492000.

Date/timePositionNaut miles runAvg speedWind from/ knotsBaromVisibWave heightAir tempDewpointWater temp
2017-Aug-20 07:09N 57°52' E 010°28'210.1
2017-Aug-20 06:58N 57°52' E 010°31'510.1
2017-Aug-20 06:31N 57°52' E 010°40'5 9.9
2017-Aug-20 05:57N 57°49' E 010°48'511.0
2017-Aug-20 05:28N 57°45' E 010°54'511.7
2017-Aug-20 05:00N 57°41' E 011°02'511.1
2017-Aug-20 04:31N 57°37' E 011°09'611.3
2017-Aug-20 04:01N 57°33' E 011°17'611.7
2017-Aug-20 03:31N 57°29' E 011°25'611.3
2017-Aug-20 03:01N 57°24' E 011°28'611.4
2017-Aug-20 02:30N 57°19' E 011°31'611.6
2017-Aug-20 02:01N 57°13' E 011°35'711.5
2017-Aug-20 01:25N 57°07' E 011°39'711.1
2017-Aug-20 00:48N 57°01' E 011°43'5410.8
2017-Aug-19 19:45N 56°11' E 012°23'310.3
2017-Aug-19 19:31N 56°09' E 012°27'510.5
2017-Aug-19 19:01N 56°06' E 012°34'510.4
2017-Aug-19 18:31N 56°02' E 012°40'510.7
2017-Aug-19 18:00N 55°57' E 012°44'510.4
2017-Aug-19 17:31N 55°52' E 012°45'510.1
2017-Aug-19 17:01N 55°47' E 012°43'510.0
2017-Aug-19 16:31N 55°43' E 012°38'0 0.6
2017-Aug-19 15:58N 55°43' E 012°37'0 0.0
2017-Aug-19 15:28N 55°43' E 012°37'0 0.0
2017-Aug-19 14:58N 55°43' E 012°37'0 0.0
2017-Aug-19 13:58N 55°43' E 012°37'0 0.0
2017-Aug-19 13:28N 55°43' E 012°37'0 0.0
2017-Aug-19 12:58N 55°43' E 012°37'0 0.0
2017-Aug-19 12:28N 55°43' E 012°37'0 0.0
2017-Aug-19 11:58N 55°43' E 012°37'0 0.0
2017-Aug-19 11:28N 55°43' E 012°37'0 0.0
2017-Aug-19 10:58N 55°43' E 012°37'0 0.0
2017-Aug-19 10:28N 55°43' E 012°37'0 0.0
2017-Aug-19 09:58N 55°43' E 012°37'0 0.0
2017-Aug-19 09:28N 55°43' E 012°37'0 0.0
2017-Aug-19 08:58N 55°43' E 012°37'0 0.0
2017-Aug-19 08:28N 55°43' E 012°37'0 0.0
2017-Aug-19 07:58N 55°43' E 012°37'0 0.0
2017-Aug-19 07:28N 55°43' E 012°37'0 0.0
2017-Aug-19 06:58N 55°43' E 012°37'0 0.0
2017-Aug-19 06:28N 55°43' E 012°37'0 0.0
2017-Aug-19 05:58N 55°43' E 012°37'0 0.0
2017-Aug-19 05:28N 55°43' E 012°37'0 0.0
2017-Aug-19 04:58N 55°43' E 012°37'0 0.3
2017-Aug-19 04:31N 55°43' E 012°37'4 8.6
2017-Aug-19 04:00N 55°46' E 012°42'713.9
2017-Aug-19 03:31N 55°53' E 012°39'714.3
2017-Aug-19 03:00N 56°00' E 012°40'815.4
2017-Aug-19 02:30N 56°07' E 012°32'917.2
2017-Aug-19 02:00N 56°12' E 012°19'917.5
2017-Aug-19 01:30N 56°12' E 012°04'1717.2
2017-Aug-19 00:29N 56°09' E 011°33'917.7
2017-Aug-18 23:58N 56°10' E 011°16'1018.6
2017-Aug-18 23:24N 56°01' E 011°05'819.3
2017-Aug-18 23:00N 55°55' E 010°57'918.4
2017-Aug-18 22:30N 55°47' E 010°49'918.7
2017-Aug-18 21:59N 55°37' E 010°48'1019.0
2017-Aug-18 21:29N 55°29' E 010°56'1018.6
2017-Aug-18 20:58N 55°20' E 011°02'818.4
2017-Aug-18 20:30N 55°12' E 011°06'1019.4
2017-Aug-18 20:00N 55°02' E 011°02'1019.2
2017-Aug-18 19:30N 54°54' E 010°54'1019.8
2017-Aug-18 19:00N 54°44' E 010°53'918.6
2017-Aug-18 18:30N 54°38' E 011°05'1020.0
2017-Aug-18 18:01N 54°33' E 011°20'1019.9
2017-Aug-18 17:30N 54°29' E 011°35'1019.2
2017-Aug-18 17:00N 54°26' E 011°51'1019.3
2017-Aug-18 16:30N 54°26' E 012°08'1118.2
2017-Aug-18 15:53N 54°36' E 012°16'3219.1
2017-Aug-18 14:11N 54°53' E 013°05'2719.7
2017-Aug-18 12:49N 55°02' E 013°49'619.7
2017-Aug-18 12:30N 55°03' E 013°59'918.9
2017-Aug-18 12:00N 55°09' E 014°12'1019.4
2017-Aug-18 11:31N 55°17' E 014°23'1019.5
2017-Aug-18 11:00N 55°24' E 014°33'1019.3
2017-Aug-18 10:30N 55°30' E 014°46'1019.6
2017-Aug-18 10:00N 55°35' E 015°02'1019.6
2017-Aug-18 09:30N 55°39' E 015°17'1019.6
2017-Aug-18 09:00N 55°44' E 015°32'1019.6
2017-Aug-18 08:30N 55°49' E 015°47'1019.5
2017-Aug-18 08:01N 55°54' E 016°02'1019.9
2017-Aug-18 07:30N 55°59' E 016°17'1019.8
2017-Aug-18 07:00N 56°04' E 016°33'1019.5
2017-Aug-18 06:30N 56°09' E 016°48'1019.4
2017-Aug-18 06:00N 56°16' E 017°01'9819.4
2017-Aug-18 00:59N 57°17' E 019°19'919.7
2017-Aug-18 00:30N 57°25' E 019°28'4019.6
2017-Aug-17 22:29N 57°58' E 020°09'919.7
2017-Aug-17 22:00N 58°06' E 020°18'1019.5
2017-Aug-17 21:30N 58°15' E 020°28'1121.7
2017-Aug-17 21:01N 58°24' E 020°39'1120.5
2017-Aug-17 20:29N 58°32' E 020°51'817.2
2017-Aug-17 20:00N 58°39' E 021°00'1019.1
2017-Aug-17 19:30N 58°47' E 021°10'1020.2
2017-Aug-17 19:00N 58°56' E 021°20'1021.1
2017-Aug-17 18:30N 59°04' E 021°32'918.6
2017-Aug-17 18:00N 59°11' E 021°44'1019.2
2017-Aug-17 17:30N 59°17' E 021°59'1020.7
2017-Aug-17 17:00N 59°23' E 022°15'917.9
2017-Aug-17 16:31N 59°28' E 022°30'1019.9
2017-Aug-17 16:00N 59°32' E 022°48'918.7
2017-Aug-17 15:30N 59°35' E 023°05'1019.7
2017-Aug-17 15:01N 59°38' E 023°24'1020.5
2017-Aug-17 14:30N 59°40' E 023°44'1121.7
2017-Aug-17 14:00N 59°43' E 024°04'1019.5
2017-Aug-17 13:31N 59°46' E 024°23'918.4
2017-Aug-17 13:01N 59°50' E 024°39'917.8
2017-Aug-17 12:31N 59°55' E 024°54'713.4
2017-Aug-17 12:00N 60°02' E 024°54'613.0
2017-Aug-17 11:31N 60°08' E 024°54'1 1.4
2017-Aug-17 11:00N 60°09' E 024°55'0 0.0
2017-Aug-17 10:29N 60°09' E 024°55'0 0.0
2017-Aug-17 09:58N 60°09' E 024°55'0 0.0
2017-Aug-17 09:28N 60°09' E 024°55'0 0.0
2017-Aug-17 09:00N 60°09' E 024°55'0 0.0
2017-Aug-17 08:30N 60°09' E 024°55'0 0.0
2017-Aug-17 08:00N 60°09' E 024°55'0 0.0
2017-Aug-17 07:31N 60°09' E 024°55'0 0.0
2017-Aug-17 07:00N 60°09' E 024°55'0 0.0
2017-Aug-17 06:30N 60°09' E 024°55'0 0.0
2017-Aug-17 06:00N 60°09' E 024°55'0 0.0
2017-Aug-17 05:30N 60°09' E 024°55'0 0.0
2017-Aug-17 05:00N 60°09' E 024°55'0 0.0
2017-Aug-17 04:30N 60°09' E 024°55'0 0.0
2017-Aug-17 04:00N 60°09' E 024°55'0 0.5
2017-Aug-17 03:31N 60°09' E 024°55'3 5.1
2017-Aug-17 03:00N 60°06' E 024°54'612.6
2017-Aug-17 02:30N 60°00' E 024°58'917.1
2017-Aug-17 02:01N 59°56' E 025°13'918.7
2017-Aug-17 01:30N 59°53' E 025°31'918.6
2017-Aug-17 01:00N 59°55' E 025°49'1019.1
2017-Aug-17 00:31N 59°58' E 026°07'1019.8
2017-Aug-17 00:00N 60°01' E 026°26'1019.5
2017-Aug-16 23:31N 60°01' E 026°46'1019.5
2017-Aug-16 23:00N 59°60' E 027°05'1019.8
2017-Aug-16 22:30N 60°05' E 027°22'1019.8
2017-Aug-16 22:00N 60°10' E 027°38'918.9
2017-Aug-16 21:30N 60°11' E 027°57'1020.6
2017-Aug-16 21:00N 60°08' E 028°17'1121.3
2017-Aug-16 20:30N 60°03' E 028°36'1020.0
2017-Aug-16 20:01N 60°02' E 028°56'1019.1
2017-Aug-16 19:30N 60°02' E 029°15'611.6
2017-Aug-16 19:00N 60°02' E 029°27'510.9
2017-Aug-16 18:30N 60°00' E 029°38'510.7
2017-Aug-16 18:00N 59°58' E 029°47'510.7
2017-Aug-16 17:30N 59°56' E 029°57'5 9.5
2017-Aug-16 17:00N 59°57' E 030°06'2 4.1
2017-Aug-16 16:25N 59°57' E 030°11'0 0.0
2017-Aug-16 15:58N 59°57' E 030°11'0 0.0
2017-Aug-16 15:28N 59°57' E 030°11'0 0.0
2017-Aug-16 14:58N 59°57' E 030°11'0 0.0
2017-Aug-16 14:28N 59°57' E 030°11'0 0.0
2017-Aug-16 13:58N 59°57' E 030°11'0 0.0
2017-Aug-16 13:28N 59°57' E 030°11'0 0.0
2017-Aug-16 12:58N 59°57' E 030°11'0 0.0
2017-Aug-16 12:28N 59°57' E 030°11'0 0.0
2017-Aug-16 11:58N 59°57' E 030°11'0 0.0
2017-Aug-16 11:28N 59°57' E 030°11'0 0.0
2017-Aug-16 10:58N 59°57' E 030°11'0 0.0
2017-Aug-16 10:28N 59°57' E 030°11'0 0.0
2017-Aug-16 09:58N 59°57' E 030°11'0 0.0
2017-Aug-16 09:28N 59°57' E 030°11'0 0.0
2017-Aug-16 08:58N 59°57' E 030°11'0 0.0
2017-Aug-16 08:31N 59°57' E 030°11'0 0.0
2017-Aug-16 08:01N 59°57' E 030°11'0 0.0
2017-Aug-16 07:28N 59°57' E 030°11'0 0.0
2017-Aug-16 06:58N 59°57' E 030°11'0 0.0
2017-Aug-16 06:31N 59°57' E 030°11'0 0.0
2017-Aug-16 05:58N 59°57' E 030°11'0 0.0
2017-Aug-16 05:28N 59°57' E 030°11'0 0.0
2017-Aug-16 04:58N 59°57' E 030°11'0 0.0
2017-Aug-16 04:28N 59°57' E 030°11'0 0.0
2017-Aug-16 04:01N 59°57' E 030°11'0 0.0
2017-Aug-16 03:31N 59°57' E 030°11'2 4.2
2017-Aug-16 03:00N 59°57' E 030°07'5 9.5
2017-Aug-16 02:30N 59°56' E 029°58'612.0
2017-Aug-16 02:00N 59°58' E 029°47'510.1
2017-Aug-16 01:31N 60°00' E 029°37'510.7
2017-Aug-16 01:00N 60°01' E 029°27'713.1
2017-Aug-16 00:30N 60°01' E 029°14'714.0
2017-Aug-16 00:00N 60°02' E 028°60'815.7
2017-Aug-15 23:31N 60°02' E 028°44'816.2
2017-Aug-15 23:00N 60°03' E 028°28'917.0
2017-Aug-15 22:31N 60°07' E 028°14'714.7
2017-Aug-15 22:00N 60°09' E 027°59'918.6
2017-Aug-15 21:31N 60°09' E 027°41'713.3
2017-Aug-15 21:00N 60°06' E 027°29'816.5
2017-Aug-15 20:30N 60°01' E 027°15'816.5
2017-Aug-15 20:00N 59°58' E 027°00'816.1
2017-Aug-15 19:31N 59°60' E 026°44'815.4
2017-Aug-15 19:00N 59°59' E 026°29'816.3
2017-Aug-15 18:31N 59°56' E 026°13'815.9
2017-Aug-15 18:00N 59°54' E 025°58'816.0
2017-Aug-15 17:31N 59°52' E 025°43'815.9
2017-Aug-15 17:01N 59°50' E 025°27'815.9
2017-Aug-15 16:30N 59°49' E 025°12'816.2
2017-Aug-15 16:01N 59°47' E 024°56'815.8
2017-Aug-15 15:31N 59°41' E 024°46'714.4
2017-Aug-15 15:01N 59°34' E 024°43'713.3
2017-Aug-15 14:31N 59°27' E 024°46'0 0.9
2017-Aug-15 13:58N 59°27' E 024°46'0 0.0
2017-Aug-15 13:28N 59°27' E 024°46'0 0.0
2017-Aug-15 12:58N 59°27' E 024°46'0 0.0
2017-Aug-15 12:28N 59°27' E 024°46'0 0.0
2017-Aug-15 11:58N 59°27' E 024°46'0 0.0
2017-Aug-15 11:28N 59°27' E 024°46'0 0.0
2017-Aug-15 10:58N 59°27' E 024°46'0 0.0
2017-Aug-15 10:28N 59°27' E 024°46'0 0.0
2017-Aug-15 09:58N 59°27' E 024°46'0 0.0
2017-Aug-15 09:28N 59°27' E 024°46'0 0.0
2017-Aug-15 08:55N 59°27' E 024°46'0 0.0
2017-Aug-15 08:28N 59°27' E 024°46'0 0.0
2017-Aug-15 07:58N 59°27' E 024°46'0 0.0
2017-Aug-15 07:22N 59°27' E 024°46'0 0.0
2017-Aug-15 06:58N 59°27' E 024°46'0 0.0
2017-Aug-15 06:28N 59°27' E 024°46'1 2.0
2017-Aug-15 06:00N 59°28' E 024°46'714.1
2017-Aug-15 05:30N 59°35' E 024°41'714.3
2017-Aug-15 05:01N 59°38' E 024°29'918.0
2017-Aug-15 04:31N 59°39' E 024°11'918.6
2017-Aug-15 04:00N 59°36' E 023°54'918.6
2017-Aug-15 03:30N 59°34' E 023°36'918.4
2017-Aug-15 03:00N 59°31' E 023°18'918.6
2017-Aug-15 02:30N 59°29' E 023°01'918.9
2017-Aug-15 02:00N 59°26' E 022°43'1020.5
2017-Aug-15 01:30N 59°23' E 022°24'918.1
2017-Aug-15 01:00N 59°24' E 022°06'918.5
2017-Aug-15 00:31N 59°24' E 021°48'1019.1
2017-Aug-15 00:01N 59°24' E 021°29'918.7
2017-Aug-14 23:31N 59°25' E 021°11'918.9
2017-Aug-14 23:01N 59°25' E 020°52'1019.1
2017-Aug-14 22:30N 59°26' E 020°34'1019.0
2017-Aug-14 22:00N 59°27' E 020°15'1019.9
2017-Aug-14 21:31N 59°34' E 020°02'918.6
2017-Aug-14 21:00N 59°41' E 019°50'917.6
2017-Aug-14 20:30N 59°47' E 019°37'917.9
2017-Aug-14 20:00N 59°45' E 019°19'816.0
2017-Aug-14 19:31N 59°43' E 019°05'612.0
2017-Aug-14 19:00N 59°39' E 018°55'611.5
2017-Aug-14 18:30N 59°36' E 018°46'611.3
2017-Aug-14 18:00N 59°33' E 018°36'5 9.9
2017-Aug-14 17:31N 59°30' E 018°28'510.4
2017-Aug-14 17:00N 59°25' E 018°24'4 7.5
2017-Aug-14 16:30N 59°22' E 018°25'5 9.4
2017-Aug-14 16:01N 59°22' E 018°16'510.0
2017-Aug-14 15:31N 59°19' E 018°07'1 1.3
2017-Aug-14 15:00N 59°19' E 018°06'0 0.0
2017-Aug-14 14:30N 59°19' E 018°06'0 0.0
2017-Aug-14 14:00N 59°19' E 018°06'0 0.0
2017-Aug-14 13:30N 59°19' E 018°06'0 0.0
2017-Aug-14 13:00N 59°19' E 018°06'0 0.0
2017-Aug-14 12:30N 59°19' E 018°06'0 0.0
2017-Aug-14 12:00N 59°19' E 018°06'0 0.0
2017-Aug-14 11:30N 59°19' E 018°06'0 0.0
2017-Aug-14 11:00N 59°19' E 018°06'0 0.0
2017-Aug-14 10:24N 59°19' E 018°06'0 0.0
2017-Aug-14 10:00N 59°19' E 018°06'0 0.0
2017-Aug-14 09:30N 59°19' E 018°06'0 0.0
2017-Aug-14 09:00N 59°19' E 018°06'0 0.0
2017-Aug-14 08:24N 59°19' E 018°06'0 0.0
2017-Aug-14 08:00N 59°19' E 018°06'0 0.0
2017-Aug-14 07:30N 59°19' E 018°06'0 0.0
2017-Aug-14 07:00N 59°19' E 018°06'1 1.6
2017-Aug-14 06:30N 59°19' E 018°08'5 9.7
2017-Aug-14 06:00N 59°22' E 018°16'5 9.5
2017-Aug-14 05:30N 59°22' E 018°25'3 6.7
2017-Aug-14 05:01N 59°25' E 018°24'510.3
2017-Aug-14 04:31N 59°30' E 018°28'5 9.8
2017-Aug-14 04:00N 59°33' E 018°36'510.6
2017-Aug-14 03:31N 59°35' E 018°45'611.7
2017-Aug-14 03:01N 59°39' E 018°54'611.9
2017-Aug-14 02:31N 59°42' E 019°04'816.9
2017-Aug-14 02:01N 59°45' E 019°19'714.3
2017-Aug-14 01:31N 59°48' E 019°33'917.3
2017-Aug-14 01:00N 59°45' E 019°49'1019.6
2017-Aug-14 00:30N 59°38' E 020°03'1019.1
2017-Aug-14 00:00N 59°30' E 020°12'1019.0
2017-Aug-13 23:30N 59°21' E 020°03'1019.9
2017-Aug-13 23:00N 59°14' E 019°51'1020.3
2017-Aug-13 22:30N 59°06' E 019°38'1220.7
2017-Aug-13 21:55N 58°56' E 019°24'23119.8
2017-Aug-13 10:14N 55°39' E 015°40'621.0
2017-Aug-13 09:58N 55°37' E 015°30'1020.9
2017-Aug-13 09:30N 55°33' E 015°14'1020.8
2017-Aug-13 09:00N 55°29' E 014°58'1020.8
2017-Aug-13 08:30N 55°24' E 014°42'1020.7
2017-Aug-13 08:00N 55°16' E 014°30'1020.6
2017-Aug-13 07:31N 55°08' E 014°18'1120.7
2017-Aug-13 07:00N 55°01' E 014°06'1020.6
2017-Aug-13 06:30N 54°57' E 013°49'2120.7
2017-Aug-13 05:30N 54°51' E 013°14'1020.8
2017-Aug-13 05:01N 54°48' E 012°57'2319.4
2017-Aug-13 03:49N 54°38' E 012°21'1917.1
2017-Aug-13 02:41N 54°25' E 011°56'320.1
2017-Aug-13 02:30N 54°25' E 011°50'1020.4
2017-Aug-13 02:01N 54°29' E 011°34'1020.9
2017-Aug-13 01:31N 54°33' E 011°17'1020.7
2017-Aug-13 01:00N 54°38' E 011°01'918.3
2017-Aug-13 00:31N 54°45' E 010°51'1019.0
2017-Aug-13 00:01N 54°54' E 010°53'918.8
2017-Aug-12 23:31N 55°02' E 011°02'1019.3
2017-Aug-12 23:00N 55°12' E 011°05'1119.9
2017-Aug-12 22:28N 55°22' E 011°01'1020.5
2017-Aug-12 22:00N 55°30' E 010°52'1019.9
2017-Aug-12 21:30N 55°40' E 010°46'1019.9
2017-Aug-12 21:00N 55°50' E 010°49'1019.2
2017-Aug-12 20:29N 55°57' E 010°60'1019.6
2017-Aug-12 20:00N 56°06' E 011°08'4316.7
2017-Aug-12 17:25N 56°10' E 012°25'819.3
2017-Aug-12 17:00N 56°05' E 012°36'815.2
2017-Aug-12 16:30N 55°58' E 012°42'714.5
2017-Aug-12 16:01N 55°51' E 012°45'714.2
2017-Aug-12 15:30N 55°45' E 012°41'3 4.8
2017-Aug-12 14:58N 55°43' E 012°37'0 0.0
2017-Aug-12 14:28N 55°43' E 012°37'0 0.0
2017-Aug-12 13:58N 55°43' E 012°37'0 0.0
2017-Aug-12 13:30N 55°43' E 012°37'0 0.0
2017-Aug-12 13:01N 55°43' E 012°37'0 0.0
2017-Aug-12 12:31N 55°43' E 012°37'0 0.0
2017-Aug-12 12:01N 55°43' E 012°37'0 0.0
2017-Aug-12 11:31N 55°43' E 012°37'0 0.0
2017-Aug-12 11:01N 55°43' E 012°37'0 0.0
2017-Aug-12 10:31N 55°43' E 012°37'0 0.0
2017-Aug-12 10:01N 55°43' E 012°37'0 0.0
2017-Aug-12 09:31N 55°43' E 012°37'0 0.0
2017-Aug-12 09:01N 55°43' E 012°37'0 0.0
2017-Aug-12 08:28N 55°43' E 012°37'0 0.0
2017-Aug-12 07:58N 55°43' E 012°37'0 0.0
2017-Aug-12 07:28N 55°43' E 012°37'0 0.0
2017-Aug-12 06:58N 55°43' E 012°37'0 0.0
2017-Aug-12 06:28N 55°43' E 012°37'0 0.0
2017-Aug-12 05:58N 55°43' E 012°37'0 0.0
2017-Aug-12 05:28N 55°43' E 012°37'0 0.0
2017-Aug-12 04:58N 55°43' E 012°37'0 0.0
2017-Aug-12 04:28N 55°43' E 012°37'0 0.0
2017-Aug-12 03:58N 55°43' E 012°37'0 0.0
2017-Aug-12 03:28N 55°43' E 012°37'0 0.0
2017-Aug-12 02:58N 55°43' E 012°37'0 0.0
2017-Aug-12 02:28N 55°43' E 012°37'0 0.0
2017-Aug-12 01:58N 55°43' E 012°37'0 0.0
2017-Aug-12 01:28N 55°43' E 012°37'0 0.0
2017-Aug-12 00:58N 55°43' E 012°37'0 0.0
2017-Aug-12 00:28N 55°43' E 012°37'0 0.0
2017-Aug-11 23:58N 55°43' E 012°37'0 0.0
2017-Aug-11 23:28N 55°43' E 012°37'0 0.0
2017-Aug-11 22:58N 55°43' E 012°37'0 0.0
2017-Aug-11 22:28N 55°43' E 012°37'0 0.0
2017-Aug-11 21:58N 55°43' E 012°37'0 0.0
2017-Aug-11 21:28N 55°43' E 012°37'0 0.0
2017-Aug-11 20:58N 55°43' E 012°37'0 0.0
2017-Aug-11 20:28N 55°43' E 012°37'0 0.0
2017-Aug-11 19:58N 55°43' E 012°37'0 0.0
2017-Aug-11 19:28N 55°43' E 012°37'0 0.0
2017-Aug-11 18:55N 55°43' E 012°37'0 0.0
2017-Aug-11 18:28N 55°43' E 012°37'0 0.0
2017-Aug-11 17:58N 55°43' E 012°37'0 0.0
2017-Aug-11 17:28N 55°43' E 012°37'0 0.0
2017-Aug-11 16:58N 55°43' E 012°37'0 0.0
2017-Aug-11 16:28N 55°43' E 012°37'0 0.0
2017-Aug-11 15:58N 55°43' E 012°37'0 0.0
2017-Aug-11 15:28N 55°43' E 012°37'0 0.0
2017-Aug-11 14:58N 55°43' E 012°37'0 0.0
2017-Aug-11 13:58N 55°43' E 012°37'0 0.0
2017-Aug-11 13:28N 55°43' E 012°37'0 0.0
2017-Aug-11 12:58N 55°43' E 012°37'0 0.0
2017-Aug-11 12:28N 55°43' E 012°37'0 0.0
2017-Aug-11 11:58N 55°43' E 012°37'0 0.0
2017-Aug-11 11:28N 55°43' E 012°37'0 0.0
2017-Aug-11 10:58N 55°43' E 012°37'0 0.0
2017-Aug-11 10:28N 55°43' E 012°37'0 0.0
2017-Aug-11 09:58N 55°43' E 012°37'0 0.0
2017-Aug-11 09:28N 55°43' E 012°37'0 0.0
2017-Aug-11 08:58N 55°43' E 012°37'0 0.0
2017-Aug-11 08:28N 55°43' E 012°37'0 0.0
2017-Aug-11 07:58N 55°43' E 012°37'0 0.0
2017-Aug-11 07:28N 55°43' E 012°37'0 0.0
2017-Aug-11 06:58N 55°43' E 012°37'0 0.6
2017-Aug-11 06:30N 55°43' E 012°38'4 8.9
2017-Aug-11 06:00N 55°47' E 012°42'510.4
2017-Aug-11 05:30N 55°52' E 012°41'510.9
2017-Aug-11 05:00N 55°57' E 012°40'611.4
2017-Aug-11 04:30N 56°03' E 012°39'511.0
2017-Aug-11 04:00N 56°07' E 012°32'611.9
2017-Aug-11 03:30N 56°10' E 012°23'4410.2
2017-Aug-10 23:07N 56°01' E 011°05'212.0
2017-Aug-10 22:59N 55°59' E 011°03'612.5
2017-Aug-10 22:30N 55°55' E 010°57'612.8
2017-Aug-10 22:00N 55°49' E 010°50'612.0
2017-Aug-10 21:29N 55°43' E 010°48'510.7
2017-Aug-10 21:00N 55°41' E 010°40'611.4
2017-Aug-10 20:30N 55°39' E 010°31'611.9
2017-Aug-10 20:00N 55°40' E 010°20'711.8
2017-Aug-10 19:26N 55°41' E 010°08'  

Dump ship's entire track history